Time;durP1;ratioP1;P1;durP2;ratioP2;P2;SDS_P1;SDS_P2;PMS_P1;PMS_P2;Temp;Humidity;BMP_temperature;BMP_pressure;BME280_temperature;BME280_humidity;BME280_pressure;Samples;Min_cycle;Max_cycle;Signal;HPM_P1;HPM_P2
2023/04/29 00:01:25;;;;;;;30.53;19.77;;;9.60;99.90;;;;;;5073961;28;20472;-85
2023/04/29 00:03:51;;;;;;;37.63;20.73;;;9.60;99.90;;;;;;5073585;28;20063;-85
2023/04/29 00:06:17;;;;;;;32.10;19.13;;;9.50;99.90;;;;;;5074138;28;20047;-85
2023/04/29 00:08:43;;;;;;;35.03;19.53;;;9.50;99.90;;;;;;5074934;28;20287;-85
2023/04/29 00:11:10;;;;;;;29.73;20.17;;;9.60;99.90;;;;;;5057037;28;20076;-85
2023/04/29 00:13:38;;;;;;;37.27;21.40;;;9.50;99.90;;;;;;5057294;28;20506;-85
2023/04/29 00:16:04;;;;;;;29.20;19.50;;;9.50;99.90;;;;;;5056785;28;20793;-85
2023/04/29 00:18:31;;;;;;;36.00;20.57;;;9.50;99.90;;;;;;5056617;28;20303;-84
2023/04/29 00:20:56;;;;;;;29.13;19.27;;;9.50;99.90;;;;;;5073451;28;20380;-85
2023/04/29 00:23:22;;;;;;;35.33;20.50;;;9.50;99.90;;;;;;5056983;28;20325;-85
2023/04/29 00:25:49;;;;;;;34.90;20.97;;;9.50;99.90;;;;;;5074334;28;20132;-86
2023/04/29 00:28:14;;;;;;;35.60;20.87;;;9.50;99.90;;;;;;5057245;28;20423;-84
2023/04/29 00:30:40;;;;;;;30.60;20.33;;;9.50;99.90;;;;;;5073339;28;20283;-84
2023/04/29 00:33:06;;;;;;;34.60;19.47;;;9.50;99.90;;;;;;5056370;28;20178;-84
2023/04/29 00:35:32;;;;;;;31.33;18.93;;;9.40;99.90;;;;;;5057100;28;20044;-84
2023/04/29 00:37:57;;;;;;;30.37;19.60;;;9.40;99.90;;;;;;5039810;28;20546;-84
2023/04/29 00:40:23;;;;;;;37.83;21.27;;;9.50;99.90;;;;;;5056696;28;20555;-84
2023/04/29 00:42:49;;;;;;;32.80;19.97;;;9.40;99.90;;;;;;5074256;28;20094;-85
2023/04/29 00:45:15;;;;;;;28.03;19.77;;;9.50;99.90;;;;;;5056443;28;20044;-84
2023/04/29 00:47:41;;;;;;;30.80;19.93;;;9.40;99.90;;;;;;5072886;28;20289;-84
2023/04/29 00:50:07;;;;;;;39.87;20.83;;;9.40;99.90;;;;;;5072950;28;20083;-84
2023/04/29 00:52:34;;;;;;;31.53;19.70;;;9.40;99.90;;;;;;5074108;28;20057;-83
2023/04/29 00:55:00;;;;;;;28.83;19.50;;;9.50;99.90;;;;;;5072536;28;20301;-84
2023/04/29 00:57:29;;;;;;;34.73;20.60;;;9.40;99.90;;;;;;5073758;28;20302;-83
2023/04/29 00:59:58;;;;;;;30.67;19.83;;;9.40;99.90;;;;;;5072519;28;20298;-84
2023/04/29 01:02:25;;;;;;;31.97;21.03;;;9.40;99.90;;;;;;5072529;28;20670;-84
2023/04/29 01:04:51;;;;;;;33.10;20.40;;;9.40;99.90;;;;;;5072254;28;20290;-84
2023/04/29 01:07:30;;;;;;;34.07;20.07;;;9.40;99.90;;;;;;5072785;28;20286;-84
2023/04/29 01:10:14;;;;;;;27.07;19.03;;;9.40;99.90;;;;;;5072606;28;20367;-84
2023/04/29 01:13:00;;;;;;;25.60;19.07;;;9.50;99.90;;;;;;5072507;28;20348;-84
2023/04/29 01:15:53;;;;;;;27.93;18.97;;;9.40;99.90;;;;;;5073656;28;20329;-84
2023/04/29 01:18:27;;;;;;;32.43;19.40;;;9.40;99.90;;;;;;5072390;28;20338;-84
2023/04/29 01:20:55;;;;;;;27.75;20.35;;;9.40;99.90;;;;;;5055810;28;20690;-86
2023/04/29 01:23:26;;;;;;;28.27;17.83;;;9.40;99.90;;;;;;5072132;28;20057;-84
2023/04/29 01:25:51;;;;;;;30.00;19.27;;;9.40;99.90;;;;;;5072454;28;20767;-84
2023/04/29 01:28:39;;;;;;;28.27;18.10;;;9.40;99.90;;;;;;5055549;28;20295;-84
2023/04/29 01:31:17;;;;;;;31.77;19.10;;;9.40;99.90;;;;;;5072035;28;20102;-84
2023/04/29 01:34:13;;;;;;;32.53;19.77;;;9.40;99.90;;;;;;5055985;28;20295;-84
2023/04/29 01:37:00;;;;;;;34.57;19.37;;;9.40;99.90;;;;;;5072228;28;20302;-83
2023/04/29 01:39:36;;;;;;;29.70;19.03;;;9.40;99.90;;;;;;5055485;28;20302;-84
2023/04/29 01:42:05;;;;;;;25.27;18.47;;;9.40;99.90;;;;;;5073104;28;20344;-84
2023/04/29 01:44:32;;;;;;;29.37;19.63;;;9.40;99.90;;;;;;5055606;28;20287;-84
2023/04/29 01:47:00;;;;;;;30.10;19.00;;;9.40;99.90;;;;;;5071617;28;20282;-84
2023/04/29 01:49:29;;;;;;;31.20;19.87;;;9.50;99.90;;;;;;5073140;28;20690;-83
2023/04/29 01:51:55;;;;;;;32.67;19.13;;;9.50;99.90;;;;;;5055314;28;20373;-83
2023/04/29 01:54:21;;;;;;;33.53;20.17;;;9.40;99.90;;;;;;5055098;28;20846;-84
2023/04/29 01:56:47;;;;;;;32.80;20.33;;;9.50;99.90;;;;;;5072008;28;20040;-84
2023/04/29 01:59:13;;;;;;;32.40;20.03;;;9.50;99.90;;;;;;5071492;28;20626;-84
2023/04/29 02:01:39;;;;;;;29.17;21.00;;;9.50;99.90;;;;;;5071926;28;20289;-84
2023/04/29 02:04:04;;;;;;;33.43;19.50;;;9.50;99.90;;;;;;5071490;28;20056;-85
2023/04/29 02:06:31;;;;;;;30.17;18.60;;;9.50;99.90;;;;;;5071568;28;20484;-84
2023/04/29 02:08:57;;;;;;;32.13;19.93;;;9.60;99.90;;;;;;5054909;28;20052;-84
2023/04/29 02:11:23;;;;;;;29.67;18.83;;;9.50;99.90;;;;;;5072635;28;20381;-84
2023/04/29 02:13:49;;;;;;;33.43;19.50;;;9.50;99.90;;;;;;5071135;28;20369;-84
2023/04/29 02:16:15;;;;;;;36.67;20.70;;;9.50;99.90;;;;;;5071403;28;20044;-84
2023/04/29 02:18:41;;;;;;;34.57;19.70;;;9.50;99.90;;;;;;5072690;28;20053;-84
2023/04/29 02:21:07;;;;;;;34.90;20.70;;;9.50;99.90;;;;;;5072230;28;20321;-84
2023/04/29 02:23:36;;;;;;;34.57;20.37;;;9.50;99.90;;;;;;5071086;28;20320;-84
2023/04/29 02:26:05;;;;;;;34.83;21.07;;;9.50;99.90;;;;;;5071473;28;20332;-85
2023/04/29 02:28:35;;;;;;;33.03;20.80;;;9.40;99.90;;;;;;5071788;28;20295;-84
2023/04/29 02:31:00;;;;;;;27.23;18.77;;;9.50;99.90;;;;;;5054814;28;20279;-84
2023/04/29 02:33:26;;;;;;;30.83;21.00;;;9.40;99.90;;;;;;5071319;28;20293;-85
2023/04/29 02:35:52;;;;;;;33.80;21.03;;;9.40;99.90;;;;;;5071482;28;20044;-83
2023/04/29 02:38:18;;;;;;;33.93;21.97;;;9.40;99.90;;;;;;5072016;28;20087;-81
2023/04/29 02:40:45;;;;;;;33.23;22.03;;;9.40;99.90;;;;;;5054883;28;20079;-83
2023/04/29 02:43:11;;;;;;;35.93;17.97;;;9.40;99.90;;;;;;5072346;28;20099;-83
2023/04/29 02:45:37;;;;;;;41.33;23.73;;;9.30;99.90;;;;;;5072498;28;20321;-83
2023/04/29 02:48:04;;;;;;;36.87;21.97;;;9.30;99.90;;;;;;5054592;28;20279;-82
2023/04/29 02:50:30;;;;;;;38.87;22.33;;;9.30;99.90;;;;;;5071357;28;20287;-82
2023/04/29 02:52:56;;;;;;;42.23;23.97;;;9.30;99.90;;;;;;5071592;28;20283;-83
2023/04/29 02:55:22;;;;;;;40.17;23.47;;;9.30;99.90;;;;;;5071113;28;20774;-83
2023/04/29 02:57:48;;;;;;;41.20;23.13;;;9.30;99.90;;;;;;5071308;28;20086;-84
2023/04/29 03:00:14;;;;;;;39.87;23.77;;;9.30;99.90;;;;;;5054296;28;20048;-83
2023/04/29 03:02:40;;;;;;;36.80;22.67;;;9.20;99.90;;;;;;5072346;28;20088;-83
2023/04/29 03:05:06;;;;;;;32.20;20.87;;;9.30;99.90;;;;;;5072152;28;20400;-84
2023/04/29 03:07:31;;;;;;;36.70;21.80;;;9.30;99.90;;;;;;5071259;28;20293;-83
2023/04/29 03:09:57;;;;;;;40.77;22.37;;;9.30;99.90;;;;;;5054641;28;20362;-83
2023/04/29 03:12:23;;;;;;;37.90;21.70;;;9.20;99.90;;;;;;5070781;28;20052;-83
2023/04/29 03:14:50;;;;;;;32.17;18.73;;;9.20;99.90;;;;;;5072265;28;20279;-83
2023/04/29 03:17:16;;;;;;;37.67;20.53;;;9.20;99.90;;;;;;5070738;28;20048;-83
2023/04/29 03:19:42;;;;;;;32.57;19.10;;;9.20;99.90;;;;;;5071973;28;20684;-83
2023/04/29 03:22:10;;;;;;;35.77;19.33;;;9.20;99.90;;;;;;5070800;28;20094;-87
2023/04/29 03:24:37;;;;;;;31.63;19.07;;;9.20;99.90;;;;;;5054016;28;20064;-83
2023/04/29 03:27:03;;;;;;;36.33;19.90;;;9.20;99.90;;;;;;5056041;28;20294;-83
2023/04/29 03:29:30;;;;;;;34.00;19.03;;;9.20;99.90;;;;;;5075444;28;20466;-83
2023/04/29 03:31:56;;;;;;;34.23;19.70;;;9.20;99.90;;;;;;5074511;28;20676;-83
2023/04/29 03:34:23;;;;;;;29.07;18.03;;;9.20;99.90;;;;;;5073857;28;20365;-83
2023/04/29 03:36:50;;;;;;;31.93;18.50;;;9.20;99.90;;;;;;5074756;28;20330;-83
2023/04/29 03:39:16;;;;;;;30.67;19.37;;;9.20;99.90;;;;;;5041319;28;20290;-84
2023/04/29 03:41:41;;;;;;;28.43;16.90;;;9.20;99.90;;;;;;5058116;28;20318;-83
2023/04/29 03:44:07;;;;;;;27.10;16.53;;;9.20;99.90;;;;;;5074487;28;20341;-83
2023/04/29 03:46:33;;;;;;;28.93;18.17;;;9.20;99.90;;;;;;5074031;28;20041;-83
2023/04/29 03:48:58;;;;;;;27.80;16.53;;;9.20;99.90;;;;;;5074231;28;20052;-83
2023/04/29 03:51:25;;;;;;;25.47;15.97;;;9.20;99.90;;;;;;5075359;28;20056;-83
2023/04/29 03:53:52;;;;;;;27.13;15.73;;;9.20;99.90;;;;;;5074278;28;20403;-83
2023/04/29 03:56:18;;;;;;;26.13;14.70;;;9.20;99.90;;;;;;5073876;28;20681;-83
2023/04/29 03:58:43;;;;;;;26.57;15.77;;;9.20;99.90;;;;;;5073769;28;20311;-83
2023/04/29 04:01:10;;;;;;;25.23;15.40;;;9.20;99.90;;;;;;5073889;28;20113;-83
2023/04/29 04:03:36;;;;;;;27.63;15.03;;;9.20;99.90;;;;;;5057227;28;20060;-83
2023/04/29 04:06:02;;;;;;;25.17;16.13;;;9.20;99.90;;;;;;5073887;28;20302;-83
2023/04/29 04:08:28;;;;;;;23.53;15.37;;;9.20;99.90;;;;;;5073816;28;20049;-83
2023/04/29 04:10:54;;;;;;;21.77;14.63;;;9.20;99.90;;;;;;5073913;28;20294;-83
2023/04/29 04:13:20;;;;;;;21.33;15.17;;;9.20;99.90;;;;;;5073283;28;20043;-84
2023/04/29 04:15:50;;;;;;;20.93;14.77;;;9.20;99.90;;;;;;5074766;28;20287;-84
2023/04/29 04:18:16;;;;;;;26.83;14.13;;;9.20;99.90;;;;;;5073175;28;20342;-84
2023/04/29 04:20:42;;;;;;;23.87;15.17;;;9.20;99.90;;;;;;5075002;28;20816;-83
2023/04/29 04:23:08;;;;;;;22.67;13.93;;;9.20;99.90;;;;;;5073543;28;20036;-83
2023/04/29 04:25:33;;;;;;;24.00;13.97;;;9.20;99.90;;;;;;5073396;28;20496;-83
2023/04/29 04:27:59;;;;;;;21.93;13.47;;;9.20;99.90;;;;;;5073638;28;20048;-83
2023/04/29 04:30:25;;;;;;;25.93;13.03;;;9.20;99.90;;;;;;5073188;28;20056;-84
2023/04/29 04:32:50;;;;;;;20.90;13.50;;;9.20;99.90;;;;;;5073381;28;20071;-84
2023/04/29 04:35:16;;;;;;;27.50;13.37;;;9.20;99.90;;;;;;5073332;28;20134;-83
2023/04/29 04:37:42;;;;;;;21.83;13.20;;;9.20;99.90;;;;;;5072549;28;20373;-84
2023/04/29 04:40:10;;;;;;;21.37;13.00;;;9.10;99.90;;;;;;5073427;28;20048;-83
2023/04/29 04:42:35;;;;;;;21.20;13.53;;;9.20;99.90;;;;;;5072921;28;20479;-84
2023/04/29 04:45:01;;;;;;;22.17;13.20;;;9.20;99.90;;;;;;5074027;28;20283;-84
2023/04/29 04:47:27;;;;;;;21.70;13.30;;;9.20;99.90;;;;;;5072718;28;20048;-83
2023/04/29 04:49:53;;;;;;;21.83;13.33;;;9.20;99.90;;;;;;5073267;28;20447;-84
2023/04/29 04:52:22;;;;;;;21.60;12.13;;;9.20;99.90;;;;;;5073285;28;20503;-84
2023/04/29 04:54:47;;;;;;;21.03;12.47;;;9.20;99.90;;;;;;5074075;28;20055;-83
2023/04/29 04:57:13;;;;;;;23.40;12.73;;;9.20;99.90;;;;;;5072787;28;20636;-84
2023/04/29 04:59:39;;;;;;;22.07;12.67;;;9.20;99.90;;;;;;5072363;28;20052;-84
2023/04/29 05:02:05;;;;;;;18.27;12.07;;;9.30;99.90;;;;;;5056605;28;20059;-84
2023/04/29 05:04:30;;;;;;;20.97;11.90;;;9.20;99.90;;;;;;5055978;28;20041;-84
2023/04/29 05:06:56;;;;;;;21.97;11.63;;;9.20;99.90;;;;;;5073065;28;20063;-84
2023/04/29 05:09:22;;;;;;;20.90;11.80;;;9.30;99.90;;;;;;5073435;28;20470;-85
2023/04/29 05:11:48;;;;;;;19.43;10.83;;;9.30;99.90;;;;;;5072682;28;20049;-84
2023/04/29 05:14:13;;;;;;;20.93;12.17;;;9.30;99.90;;;;;;5055839;28;20400;-84
2023/04/29 05:16:39;;;;;;;17.93;10.10;;;9.30;99.90;;;;;;5072034;28;20051;-84
2023/04/29 05:19:05;;;;;;;15.23;9.73;;;9.30;99.90;;;;;;5072473;28;20076;-84
2023/04/29 05:21:30;;;;;;;15.37;10.00;;;9.30;99.90;;;;;;5072225;28;20152;-84
2023/04/29 05:23:56;;;;;;;14.60;9.63;;;9.40;99.90;;;;;;5072342;28;20048;-84
2023/04/29 05:26:22;;;;;;;19.00;9.07;;;9.40;99.90;;;;;;5072561;28;20048;-83
2023/04/29 05:28:48;;;;;;;20.53;10.30;;;9.40;99.90;;;;;;5073221;28;20075;-84
2023/04/29 05:31:14;;;;;;;17.53;8.00;;;9.50;99.90;;;;;;5072151;28;20855;-84
2023/04/29 05:33:40;;;;;;;18.30;9.30;;;9.50;99.90;;;;;;5039013;28;20121;-83
2023/04/29 05:36:06;;;;;;;17.07;9.73;;;9.60;99.90;;;;;;5073398;28;20044;-84
2023/04/29 05:38:32;;;;;;;15.47;8.90;;;9.60;99.90;;;;;;5055123;28;20079;-84
2023/04/29 05:40:58;;;;;;;16.57;8.30;;;9.70;99.90;;;;;;5072096;28;20764;-85
2023/04/29 05:43:24;;;;;;;15.30;8.93;;;9.70;99.90;;;;;;5039061;28;20052;-84
2023/04/29 05:45:49;;;;;;;13.77;8.43;;;9.90;99.90;;;;;;5071682;28;20148;-84
2023/04/29 05:48:15;;;;;;;15.60;8.83;;;10.10;99.90;;;;;;5072215;28;20333;-84
2023/04/29 05:50:41;;;;;;;11.20;8.17;;;11.00;99.90;;;;;;5054689;28;20049;-84
2023/04/29 05:53:07;;;;;;;15.17;8.10;;;12.20;99.90;;;;;;5038867;28;20088;-85
2023/04/29 05:55:33;;;;;;;16.00;7.20;;;13.30;99.90;;;;;;5071819;28;20079;-85
2023/04/29 05:57:59;;;;;;;14.17;7.37;;;14.40;99.90;;;;;;5054717;28;20040;-85
2023/04/29 06:00:25;;;;;;;12.37;7.17;;;15.20;99.90;;;;;;5054174;28;20279;-83
2023/04/29 06:02:51;;;;;;;13.40;6.77;;;15.90;99.90;;;;;;5071200;28;20046;-84
2023/04/29 06:05:16;;;;;;;13.57;7.33;;;16.50;99.90;;;;;;5072531;28;20087;-84
2023/04/29 06:07:43;;;;;;;11.43;6.50;;;16.90;99.90;;;;;;5072675;28;20040;-84
2023/04/29 06:10:09;;;;;;;10.93;6.93;;;17.60;99.90;;;;;;5072717;28;20101;-84
2023/04/29 06:12:35;;;;;;;11.83;6.70;;;18.00;99.90;;;;;;5072471;28;20062;-86
2023/04/29 06:15:01;;;;;;;11.87;6.13;;;18.50;99.90;;;;;;5072720;28;20052;-85
2023/04/29 06:17:29;;;;;;;11.80;5.87;;;19.10;99.90;;;;;;5071302;28;20047;-79
2023/04/29 06:19:55;;;;;;;13.53;6.00;;;19.10;99.90;;;;;;5055238;28;20059;-85
2023/04/29 06:22:21;;;;;;;10.80;6.23;;;19.40;99.90;;;;;;5071637;28;20037;-86
2023/04/29 06:24:48;;;;;;;9.60;6.10;;;19.30;99.90;;;;;;5070836;28;20095;-79
2023/04/29 06:27:15;;;;;;;10.63;5.70;;;19.30;99.90;;;;;;5071546;28;20063;-85
2023/04/29 06:29:41;;;;;;;12.27;6.17;;;19.30;92.30;;;;;;5071424;28;20040;-84
2023/04/29 06:32:07;;;;;;;9.83;5.20;;;19.90;99.90;;;;;;5055291;28;20071;-84
2023/04/29 06:34:33;;;;;;;13.00;6.07;;;19.90;99.90;;;;;;5072401;28;20086;-78
2023/04/29 06:36:59;;;;;;;10.53;5.80;;;20.60;99.90;;;;;;5072458;28;20047;-75
2023/04/29 06:39:24;;;;;;;11.23;5.47;;;20.80;93.10;;;;;;5072424;28;20131;-77
2023/04/29 06:41:51;;;;;;;9.53;5.43;;;21.10;95.20;;;;;;5072120;28;20040;-78
2023/04/29 06:44:18;;;;;;;9.87;5.83;;;21.50;92.30;;;;;;5072364;28;20058;-84
2023/04/29 06:46:44;;;;;;;10.87;6.17;;;21.40;79.00;;;;;;5072277;28;20123;-84
2023/04/29 06:49:10;;;;;;;9.20;5.13;;;21.40;80.00;;;;;;5072501;28;20094;-85
2023/04/29 06:51:38;;;;;;;10.33;5.43;;;21.40;64.90;;;;;;5071119;28;20049;-82
2023/04/29 06:54:04;;;;;;;10.47;5.23;;;21.70;68.10;;;;;;5071338;28;20048;-82
2023/04/29 06:56:30;;;;;;;10.43;5.00;;;21.90;68.90;;;;;;5072117;28;20045;-83
2023/04/29 06:58:56;;;;;;;13.77;5.43;;;22.40;69.60;;;;;;5070719;28;20573;-84
2023/04/29 07:01:21;;;;;;;10.23;5.27;;;22.80;65.10;;;;;;5073150;28;20052;-84
2023/04/29 07:03:47;;;;;;;9.90;5.27;;;23.10;65.40;;;;;;5075490;28;20041;-83
2023/04/29 07:06:13;;;;;;;13.00;5.83;;;23.30;64.10;;;;;;5074553;28;20060;-84
2023/04/29 07:08:39;;;;;;;10.17;5.37;;;23.20;61.30;;;;;;5075450;28;20064;-84
2023/04/29 07:11:04;;;;;;;10.10;5.60;;;23.10;54.80;;;;;;5074748;28;20059;-84
2023/04/29 07:13:30;;;;;;;11.20;5.67;;;23.20;60.00;;;;;;5076087;28;20084;-85
2023/04/29 07:15:56;;;;;;;10.83;4.97;;;23.70;59.40;;;;;;5075672;28;20055;-84
2023/04/29 07:18:22;;;;;;;9.47;5.77;;;24.30;54.80;;;;;;5075940;28;20058;-84
2023/04/29 07:20:49;;;;;;;10.37;5.37;;;24.10;55.50;;;;;;5075492;28;20128;-85
2023/04/29 07:23:15;;;;;;;9.97;5.10;;;23.70;55.70;;;;;;5075639;28;20049;-79
2023/04/29 07:25:41;;;;;;;9.73;4.73;;;23.50;56.10;;;;;;5073711;28;20044;-85
2023/04/29 07:28:10;;;;;;;10.10;4.70;;;23.90;56.00;;;;;;5074977;28;20040;-82
2023/04/29 07:30:36;;;;;;;8.87;4.57;;;24.00;55.30;;;;;;5075244;28;20090;-88
2023/04/29 07:33:03;;;;;;;11.37;5.03;;;23.40;51.40;;;;;;5074907;28;20076;-85
2023/04/29 07:35:29;;;;;;;9.63;5.13;;;23.70;53.30;;;;;;5075350;28;20048;-85
2023/04/29 07:37:55;;;;;;;7.50;4.57;;;24.10;54.50;;;;;;5075148;28;20542;-81
2023/04/29 07:40:21;;;;;;;8.23;5.00;;;24.50;52.40;;;;;;5075305;28;20082;-86
2023/04/29 07:42:47;;;;;;;8.93;5.07;;;25.10;52.20;;;;;;5075326;28;20048;-85
2023/04/29 07:45:13;;;;;;;8.67;4.27;;;25.20;50.70;;;;;;5057839;28;20049;-84
2023/04/29 07:47:39;;;;;;;9.80;4.93;;;24.80;50.90;;;;;;5075344;28;20041;-85
2023/04/29 07:50:05;;;;;;;7.20;4.33;;;24.30;50.50;;;;;;5075348;28;20139;-83
2023/04/29 07:52:31;;;;;;;9.57;4.40;;;24.70;50.90;;;;;;5074343;28;20048;-84
2023/04/29 07:54:57;;;;;;;6.97;3.73;;;24.80;50.40;;;;;;5074856;28;20040;-84
2023/04/29 07:57:23;;;;;;;11.17;4.97;;;25.10;50.30;;;;;;5074133;28;20044;-82
2023/04/29 07:59:55;;;;;;;8.20;4.50;;;25.20;49.40;;;;;;5074930;28;20079;-82
2023/04/29 08:02:20;;;;;;;10.43;4.73;;;24.70;48.60;;;;;;5074212;28;20447;-84
2023/04/29 08:04:46;;;;;;;10.80;4.40;;;24.00;49.00;;;;;;5074803;28;20052;-83
2023/04/29 08:07:12;;;;;;;10.50;4.57;;;23.10;50.00;;;;;;5074903;28;20037;-83
2023/04/29 08:09:38;;;;;;;9.60;4.67;;;22.20;52.00;;;;;;5074702;28;20055;-83
2023/04/29 08:12:04;;;;;;;10.83;4.10;;;21.50;52.80;;;;;;5074137;28;20048;-80
2023/04/29 08:14:30;;;;;;;8.13;4.00;;;20.90;54.20;;;;;;5074983;28;20476;-86
2023/04/29 08:16:55;;;;;;;11.07;4.43;;;20.20;54.20;;;;;;5073014;28;20150;-84
2023/04/29 08:19:21;;;;;;;13.40;4.67;;;19.50;55.20;;;;;;5074782;28;20084;-82
2023/04/29 08:21:47;;;;;;;10.83;4.80;;;18.90;55.80;;;;;;5074455;28;20044;-83
2023/04/29 08:24:13;;;;;;;7.70;3.90;;;18.50;56.70;;;;;;5073008;28;20114;-83
2023/04/29 08:26:42;;;;;;;12.47;4.30;;;18.10;56.80;;;;;;5055381;28;20147;-83
2023/04/29 08:29:13;;;;;;;9.17;4.17;;;17.70;57.40;;;;;;5071985;28;20045;-83
2023/04/29 08:31:39;;;;;;;7.87;4.10;;;17.30;58.70;;;;;;5074510;28;20480;-83
2023/04/29 08:34:05;;;;;;;8.83;4.40;;;17.30;59.70;;;;;;5056403;28;20060;-83
2023/04/29 08:36:31;;;;;;;10.10;3.97;;;17.30;60.00;;;;;;5074270;28;20052;-82
2023/04/29 08:38:56;;;;;;;7.00;4.17;;;17.40;60.20;;;;;;5072569;28;20171;-83
2023/04/29 08:41:23;;;;;;;8.53;4.33;;;17.30;59.50;;;;;;5074469;28;20074;-83
2023/04/29 08:43:49;;;;;;;6.77;4.53;;;17.40;60.70;;;;;;5074094;28;20146;-83
2023/04/29 08:46:16;;;;;;;8.30;4.63;;;17.30;58.80;;;;;;5074081;28;20078;-83
2023/04/29 08:48:43;;;;;;;7.77;4.83;;;16.90;58.00;;;;;;5074280;28;20383;-82
2023/04/29 08:51:12;;;;;;;7.20;4.90;;;16.80;60.00;;;;;;5072575;28;20098;-83
2023/04/29 08:53:38;;;;;;;9.53;5.50;;;16.80;61.80;;;;;;5074188;28;20523;-83
2023/04/29 08:56:16;;;;;;;11.13;5.77;;;16.70;65.50;;;;;;5073944;28;20040;-84
2023/04/29 08:58:42;;;;;;;8.47;5.60;;;16.10;62.80;;;;;;5056131;28;20408;-83
2023/04/29 09:01:09;;;;;;;8.60;5.60;;;15.90;64.60;;;;;;5073615;28;20086;-82
2023/04/29 09:04:03;;;;;;;11.00;5.67;;;15.70;66.60;;;;;;5072879;28;20155;-82
2023/04/29 09:06:32;;;;;;;8.70;5.43;;;15.80;70.20;;;;;;5074029;28;20053;-82
2023/04/29 09:08:59;;;;;;;9.63;5.13;;;15.90;71.60;;;;;;5073436;28;20546;-82
2023/04/29 09:11:27;;;;;;;9.63;5.10;;;15.90;74.80;;;;;;5072684;28;20084;-83
2023/04/29 09:13:59;;;;;;;10.47;5.37;;;15.90;76.10;;;;;;5072463;28;20484;-82
2023/04/29 09:16:25;;;;;;;9.17;5.10;;;16.00;76.40;;;;;;5073530;28;20044;-82
2023/04/29 09:18:51;;;;;;;8.53;5.43;;;15.90;72.40;;;;;;5072125;28;20036;-83
2023/04/29 09:21:22;;;;;;;12.73;5.43;;;15.70;74.80;;;;;;5073956;28;20041;-82
2023/04/29 09:24:02;;;;;;;11.43;5.50;;;15.70;73.20;;;;;;5072754;28;20095;-82
2023/04/29 09:26:41;;;;;;;7.50;5.37;;;15.50;74.90;;;;;;5073502;28;20045;-82
2023/04/29 09:29:10;;;;;;;9.90;5.23;;;15.40;75.80;;;;;;5073294;28;20560;-82
2023/04/29 09:31:38;;;;;;;10.37;5.90;;;15.30;81.60;;;;;;5073394;28;20040;-82
2023/04/29 09:34:04;;;;;;;9.63;5.20;;;15.10;80.80;;;;;;5055598;28;20123;-82
2023/04/29 09:36:50;;;;;;;10.03;5.60;;;15.00;81.10;;;;;;5073301;28;20044;-82
2023/04/29 09:39:18;;;;;;;12.50;5.57;;;14.90;83.60;;;;;;5071839;28;20511;-82
2023/04/29 09:41:52;;;;;;;10.67;5.47;;;14.90;84.10;;;;;;5073301;28;20128;-82
2023/04/29 09:44:23;;;;;;;8.35;4.63;;;14.80;85.40;;;;;;5072036;28;20045;-82
2023/04/29 09:47:03;;;;;;;9.47;5.50;;;14.80;84.70;;;;;;5072062;28;20060;-82
2023/04/29 09:49:39;;;;;;;9.40;5.10;;;14.90;88.40;;;;;;5073154;28;20087;-82
2023/04/29 09:52:07;;;;;;;7.77;5.00;;;15.00;90.00;;;;;;5073025;28;20060;-82
2023/04/29 09:54:37;;;;;;;9.37;5.30;;;15.00;88.00;;;;;;5073251;28;20128;-82
2023/04/29 09:57:07;;;;;;;9.77;5.30;;;15.00;87.60;;;;;;5072755;28;20043;-82
2023/04/29 09:59:38;;;;;;;11.23;5.63;;;14.90;86.10;;;;;;5073043;28;20040;-82
2023/04/29 10:02:16;;;;;;;12.53;5.00;;;14.90;88.80;;;;;;5071476;28;20040;-82
2023/04/29 10:04:45;;;;;;;9.73;5.53;;;15.00;90.70;;;;;;5071994;28;20048;-82
2023/04/29 10:07:15;;;;;;;12.60;4.97;;;15.00;90.10;;;;;;5072675;28;20036;-82
2023/04/29 10:09:42;;;;;;;8.53;5.10;;;15.00;88.60;;;;;;5072942;28;20052;-82
2023/04/29 10:12:08;;;;;;;10.37;4.63;;;15.00;91.70;;;;;;5072489;28;20040;-82
2023/04/29 10:14:43;;;;;;;8.60;3.73;;;15.00;92.10;;;;;;5072794;28;20545;-82
2023/04/29 10:17:28;;;;;;;13.68;5.03;;;14.90;90.80;;;;;;5072544;28;20049;-81
2023/04/29 10:20:04;;;;;;;9.95;3.50;;;14.80;87.40;;;;;;5072044;28;20551;-81
2023/04/29 10:22:46;;;;;;;6.53;3.80;;;14.80;84.70;;;;;;5072776;28;20053;-81
2023/04/29 10:25:14;;;;;;;9.83;3.60;;;14.80;84.00;;;;;;5072110;28;20063;-81
2023/04/29 10:27:44;;;;;;;6.53;3.10;;;14.80;86.80;;;;;;5072747;28;20182;-81
2023/04/29 10:30:15;;;;;;;5.73;3.20;;;14.90;80.50;;;;;;5072288;28;20485;-81
2023/04/29 10:32:42;;;;;;;6.37;3.13;;;14.90;83.10;;;;;;5072750;28;20101;-81
2023/04/29 10:35:10;;;;;;;6.83;3.33;;;15.10;84.10;;;;;;5072723;28;20048;-82
2023/04/29 10:37:47;;;;;;;8.13;3.77;;;15.10;82.50;;;;;;5075459;28;20098;-81
2023/04/29 10:40:22;;;;;;;6.63;2.77;;;15.20;78.00;;;;;;5076557;28;20088;-82
2023/04/29 10:42:52;;;;;;;4.88;2.38;;;15.30;74.80;;;;;;5075795;28;20052;-86
2023/04/29 10:45:33;;;;;;;6.70;3.00;;;15.40;78.80;;;;;;5076103;28;20052;-88
2023/04/29 10:48:07;;;;;;;7.87;3.20;;;15.40;77.10;;;;;;5076553;28;20377;-83
2023/04/29 10:50:34;;;;;;;6.13;2.90;;;15.40;77.20;;;;;;5076904;28;20135;-80
2023/04/29 10:53:04;;;;;;;6.37;3.17;;;15.20;73.20;;;;;;5075510;28;20051;-84
2023/04/29 10:55:30;;;;;;;6.63;3.00;;;15.20;72.00;;;;;;5075157;28;20091;-82
2023/04/29 10:57:56;;;;;;;6.00;2.67;;;15.00;72.00;;;;;;5075054;28;20044;-82
2023/04/29 11:00:29;;;;;;;5.47;2.50;;;15.00;74.20;;;;;;5076002;28;20056;-83
2023/04/29 11:02:57;;;;;;;4.67;2.40;;;15.00;73.20;;;;;;5075382;28;20084;-82
2023/04/29 11:05:30;;;;;;;7.33;2.90;;;14.90;72.20;;;;;;5074986;28;20057;-82
2023/04/29 11:08:11;;;;;;;5.57;2.40;;;14.90;71.10;;;;;;5075130;28;20044;-83
2023/04/29 11:10:40;;;;;;;4.17;2.03;;;14.90;67.30;;;;;;5076069;28;20045;-81
2023/04/29 11:13:30;;;;;;;5.03;2.30;;;14.80;68.50;;;;;;5057992;28;20044;-82
2023/04/29 11:16:11;;;;;;;5.00;2.03;;;14.70;59.20;;;;;;5076107;28;20049;-84
2023/04/29 11:19:05;;;;;;;6.37;1.87;;;14.70;64.40;;;;;;5074833;28;20135;-83
2023/04/29 11:21:33;;;;;;;4.17;2.10;;;14.70;61.90;;;;;;5074827;28;20044;-84
2023/04/29 11:24:01;;;;;;;5.37;2.27;;;14.70;62.70;;;;;;5074602;28;20056;-84
2023/04/29 11:26:27;;;;;;;7.53;2.97;;;14.60;63.20;;;;;;5074295;28;20052;-83
2023/04/29 11:28:53;;;;;;;4.47;2.40;;;14.60;65.20;;;;;;5058093;28;20056;-78
2023/04/29 11:31:19;;;;;;;6.27;2.83;;;14.50;64.20;;;;;;5075519;28;20546;-82
2023/04/29 11:33:46;;;;;;;6.83;2.40;;;14.50;65.40;;;;;;5074679;28;20408;-83
2023/04/29 11:36:11;;;;;;;6.07;2.33;;;14.50;66.50;;;;;;5074411;28;20049;-83
2023/04/29 11:38:42;;;;;;;6.53;2.17;;;14.40;64.00;;;;;;5075841;28;20538;-84
2023/04/29 11:41:10;;;;;;;6.63;2.13;;;14.40;67.00;;;;;;5057728;28;20046;-85
2023/04/29 11:43:38;;;;;;;8.93;2.40;;;14.40;67.80;;;;;;5074314;28;20092;-83
2023/04/29 11:46:14;;;;;;;6.93;2.30;;;14.40;71.90;;;;;;5073576;28;20135;-84
2023/04/29 11:48:49;;;;;;;5.87;2.10;;;14.40;75.30;;;;;;5074134;28;20377;-84
2023/04/29 11:51:18;;;;;;;4.47;1.93;;;14.40;77.30;;;;;;5074000;28;20353;-84
2023/04/29 11:53:44;;;;;;;6.77;2.00;;;14.40;77.40;;;;;;5073957;28;20059;-81
2023/04/29 11:56:10;;;;;;;6.43;2.13;;;14.40;80.00;;;;;;5073860;28;20040;-83
2023/04/29 11:58:36;;;;;;;5.73;2.30;;;14.40;83.90;;;;;;5073559;28;20045;-77
2023/04/29 12:01:04;;;;;;;5.67;2.30;;;14.30;80.70;;;;;;5074553;28;20469;-81
2023/04/29 12:03:32;;;;;;;6.53;2.50;;;14.20;78.60;;;;;;5074659;28;20373;-85
2023/04/29 12:05:58;;;;;;;6.03;2.30;;;14.20;80.40;;;;;;5074975;28;20706;-83
2023/04/29 12:08:28;;;;;;;5.13;2.33;;;14.20;85.00;;;;;;5074401;28;20374;-87
2023/04/29 12:10:56;;;;;;;4.20;1.90;;;14.30;86.70;;;;;;5074713;28;20078;-85
2023/04/29 12:13:23;;;;;;;5.93;2.13;;;14.20;85.20;;;;;;5074294;28;20293;-78
2023/04/29 12:15:50;;;;;;;5.33;2.10;;;14.20;82.10;;;;;;5073277;28;20662;-78
2023/04/29 12:18:17;;;;;;;9.37;2.37;;;14.30;88.10;;;;;;5074421;28;20294;-84
2023/04/29 12:20:44;;;;;;;7.77;2.17;;;14.20;84.20;;;;;;5074679;28;20790;-83
2023/04/29 12:23:17;;;;;;;5.63;2.57;;;14.20;87.40;;;;;;5074191;28;20291;-81
2023/04/29 12:25:51;;;;;;;5.93;2.30;;;14.10;86.40;;;;;;5074441;28;20417;-82
2023/04/29 12:28:17;;;;;;;4.60;2.07;;;14.10;80.00;;;;;;5073797;28;20294;-82
2023/04/29 12:30:44;;;;;;;8.17;2.03;;;14.00;74.70;;;;;;5073596;28;20290;-78
2023/04/29 12:33:14;;;;;;;5.70;1.60;;;14.10;77.90;;;;;;5073380;28;20409;-80
2023/04/29 12:35:40;;;;;;;3.90;1.80;;;14.00;77.20;;;;;;5074418;28;20388;-76
2023/04/29 12:38:06;;;;;;;10.10;1.93;;;14.00;75.20;;;;;;5072942;28;20853;-81
2023/04/29 12:40:32;;;;;;;4.00;1.57;;;14.00;77.00;;;;;;5073851;28;20961;-77
2023/04/29 12:43:06;;;;;;;6.03;2.20;;;14.10;78.30;;;;;;5074338;28;20615;-84
2023/04/29 12:45:33;;;;;;;4.57;1.57;;;14.10;76.10;;;;;;5073108;28;20364;-82